createdAt,value
2022-12-24T00:00:36.049Z,74896.56
2022-12-24T00:10:38.214Z,74886.44
2022-12-24T00:20:47.349Z,74894.53
2022-12-24T00:30:51.944Z,74892.50
2022-12-24T00:41:04.444Z,74886.44
2022-12-24T00:51:08.818Z,74878.34
2022-12-24T01:01:11.418Z,74884.41
2022-12-24T01:11:15.518Z,74892.50
2022-12-24T01:21:17.662Z,74900.59
2022-12-24T01:31:20.269Z,74924.88
2022-12-24T01:41:43.922Z,74910.72
2022-12-24T01:51:55.891Z,74900.59
2022-12-24T02:02:01.756Z,74900.59
2022-12-24T02:12:05.591Z,74900.59
2022-12-24T02:22:15.800Z,74916.78
2022-12-24T02:32:31.297Z,74916.78
2022-12-24T02:42:40.994Z,74937.03
2022-12-24T02:52:48.341Z,74973.44
2022-12-24T03:03:11.594Z,74991.66
2022-12-24T03:13:19.408Z,75013.91
2022-12-24T03:23:26.717Z,75017.97
2022-12-24T03:33:29.740Z,75024.03
2022-12-24T03:43:38.817Z,75034.16
2022-12-24T03:53:45.581Z,75046.28
2022-12-24T04:03:49.924Z,75080.69
2022-12-24T04:13:52.123Z,75082.72
2022-12-24T04:23:56.524Z,75088.78
2022-12-24T04:34:01.003Z,75082.72
2022-12-24T04:44:05.475Z,75074.63
2022-12-24T04:54:07.621Z,75088.78
2022-12-24T05:04:11.331Z,75113.06
2022-12-24T05:14:13.448Z,75131.28
2022-12-24T05:24:34.305Z,75131.28
2022-12-24T05:34:36.363Z,75135.31
2022-12-24T05:44:40.619Z,75141.41
2022-12-24T05:54:47.505Z,75139.38
2022-12-24T06:04:49.712Z,75153.53
2022-12-24T06:14:54.344Z,75151.50
2022-12-24T06:24:56.523Z,75175.78
2022-12-24T06:35:00.955Z,75167.69
2022-12-24T06:45:08.070Z,75173.78
2022-12-24T06:55:10.931Z,75179.84
2022-12-24T07:05:13.705Z,75187.94
2022-12-24T07:15:17.506Z,75208.16
2022-12-24T07:25:19.893Z,75210.19
2022-12-24T07:35:24.355Z,75212.22
2022-12-24T07:45:29.333Z,75236.50
2022-12-24T07:55:33.808Z,75238.53
2022-12-24T08:05:38.834Z,75244.59
2022-12-24T08:15:44.015Z,75244.59
2022-12-24T08:25:50.916Z,75248.66
2022-12-24T08:35:54.563Z,75260.78
2022-12-24T08:46:08.360Z,75268.88
2022-12-24T08:56:11.157Z,75283.03
2022-12-24T09:06:21.324Z,75272.94
2022-12-24T09:16:23.693Z,75276.97
2022-12-24T09:26:30.225Z,75276.97
2022-12-24T09:36:39.067Z,75285.06
2022-12-24T09:46:43.915Z,75281.03
2022-12-24T09:56:47.675Z,75264.84
2022-12-24T10:06:55.557Z,75299.22
2022-12-24T10:17:23.868Z,75293.16
2022-12-24T10:27:31.140Z,75287.09
2022-12-24T10:37:33.487Z,75293.16
2022-12-24T10:47:39.689Z,75293.16
2022-12-24T10:57:48.937Z,75305.31
2022-12-24T11:08:02.239Z,75317.44
2022-12-24T11:18:06.947Z,75329.59
2022-12-24T11:28:25.205Z,75325.53
2022-12-24T11:38:29.929Z,75337.69
2022-12-24T11:48:35.039Z,75370.06
2022-12-24T11:58:45.950Z,75382.19
2022-12-24T12:08:55.477Z,75398.38
2022-12-24T12:19:05.638Z,75382.19
2022-12-24T12:29:32.470Z,75398.38
2022-12-24T12:39:37.849Z,75402.44
2022-12-24T12:49:43.575Z,75422.69
2022-12-24T12:59:54.203Z,75436.84
2022-12-24T13:10:31.134Z,75455.06
2022-12-24T13:20:37.136Z,75446.97
2022-12-24T13:30:40.296Z,75440.88
2022-12-24T13:40:44.933Z,75446.97
2022-12-24T13:50:52.117Z,75477.31
2022-12-24T14:00:59.168Z,75491.47
2022-12-24T14:11:10.573Z,75511.72
2022-12-24T14:21:36.900Z,75517.78
2022-12-24T14:31:56.833Z,75536.00
2022-12-24T14:42:21.456Z,75590.63
2022-12-24T15:03:04.116Z,75661.47
2022-12-24T15:13:37.128Z,75685.75
2022-12-24T15:23:51.693Z,75699.91
2022-12-24T15:34:29.334Z,75754.56
2022-12-24T15:44:39.389Z,75738.38
2022-12-24T15:54:55.439Z,75776.81
2022-12-24T16:05:40.562Z,75774.81
2022-12-24T16:15:45.796Z,75801.13
2022-12-24T16:25:53.276Z,75803.13
2022-12-24T16:35:58.420Z,75819.31
2022-12-24T16:46:05.624Z,75819.31
2022-12-24T16:56:22.397Z,75847.66
2022-12-24T17:06:31.513Z,75861.81
2022-12-24T17:16:34.346Z,75863.84
2022-12-24T17:26:37.393Z,75884.09
2022-12-24T17:36:40.411Z,75904.34
2022-12-24T17:46:43.555Z,75896.22
2022-12-24T17:56:46.645Z,75912.44
2022-12-24T18:06:56.274Z,75926.59
2022-12-24T18:17:03.829Z,75944.81
2022-12-24T18:27:08.440Z,75950.88
2022-12-24T18:37:13.174Z,75956.94
2022-12-24T18:47:23.142Z,75985.28
2022-12-24T18:57:25.433Z,75989.34
2022-12-24T19:07:30.915Z,75993.38
2022-12-24T19:17:33.100Z,76009.56
2022-12-24T19:27:35.776Z,76035.88
2022-12-24T19:37:39.180Z,76031.84
2022-12-24T19:47:43.438Z,76041.97
2022-12-24T19:57:50.122Z,76052.06
2022-12-24T20:07:52.564Z,76046.00
2022-12-24T20:17:58.845Z,76076.38
2022-12-24T20:28:08.130Z,76084.47
2022-12-24T20:38:22.418Z,76074.34
2022-12-24T20:48:32.838Z,76074.34
2022-12-24T20:59:06.959Z,76070.28
2022-12-24T21:09:09.198Z,76078.38
2022-12-24T21:19:16.181Z,76082.44
2022-12-24T21:29:22.797Z,76078.38
2022-12-24T21:39:24.922Z,76086.47
2022-12-24T21:49:51.451Z,76082.44
2022-12-24T21:59:55.159Z,76082.44
2022-12-24T22:10:15.859Z,76086.47
2022-12-24T22:20:18.486Z,76082.44
2022-12-24T22:30:22.888Z,76074.34
2022-12-24T22:40:30.262Z,76098.63
2022-12-24T22:50:32.494Z,76092.56
2022-12-24T23:00:49.469Z,76086.47
2022-12-24T23:10:56.796Z,76098.63
2022-12-24T23:21:07.514Z,76082.44
2022-12-24T23:31:15.436Z,76078.38
2022-12-24T23:41:19.238Z,76074.34
2022-12-24T23:51:25.522Z,76086.47
